sensor_id;sensor_type;location;lat;lon;timestamp;P1;durP1;ratioP1;P2;durP2;ratioP2
43216;SDS011;60511;42.686;23.300;2022-12-29T00:01:22;8.50;;;7.70;;
43216;SDS011;60511;42.686;23.300;2022-12-29T00:03:22;8.77;;;7.97;;
43216;SDS011;60511;42.686;23.300;2022-12-29T00:05:23;8.23;;;7.53;;
43216;SDS011;60511;42.686;23.300;2022-12-29T00:07:23;8.27;;;7.60;;
43216;SDS011;60511;42.686;23.300;2022-12-29T00:09:25;9.45;;;7.65;;
43216;SDS011;60511;42.686;23.300;2022-12-29T00:11:26;8.02;;;7.22;;
43216;SDS011;60511;42.686;23.300;2022-12-29T00:13:27;7.97;;;7.18;;
43216;SDS011;60511;42.686;23.300;2022-12-29T00:15:46;7.55;;;6.88;;
43216;SDS011;60511;42.686;23.300;2022-12-29T00:17:46;8.00;;;7.22;;
43216;SDS011;60511;42.686;23.300;2022-12-29T00:19:46;8.25;;;7.45;;
43216;SDS011;60511;42.686;23.300;2022-12-29T00:22:05;8.32;;;7.53;;
43216;SDS011;60511;42.686;23.300;2022-12-29T00:24:25;7.95;;;7.25;;
43216;SDS011;60511;42.686;23.300;2022-12-29T00:26:25;8.48;;;7.53;;
43216;SDS011;60511;42.686;23.300;2022-12-29T00:28:44;8.00;;;7.28;;
43216;SDS011;60511;42.686;23.300;2022-12-29T00:31:04;8.35;;;7.45;;
43216;SDS011;60511;42.686;23.300;2022-12-29T00:33:30;8.27;;;7.47;;
43216;SDS011;60511;42.686;23.300;2022-12-29T00:35:52;8.20;;;7.50;;
43216;SDS011;60511;42.686;23.300;2022-12-29T00:37:57;8.98;;;8.18;;
43216;SDS011;60511;42.686;23.300;2022-12-29T00:40:19;8.07;;;7.28;;
43216;SDS011;60511;42.686;23.300;2022-12-29T00:42:38;8.20;;;7.40;;
43216;SDS011;60511;42.686;23.300;2022-12-29T00:44:57;8.23;;;7.43;;
43216;SDS011;60511;42.686;23.300;2022-12-29T00:46:57;7.95;;;7.25;;
43216;SDS011;60511;42.686;23.300;2022-12-29T00:49:02;8.38;;;7.57;;
43216;SDS011;60511;42.686;23.300;2022-12-29T00:51:23;8.52;;;7.72;;
43216;SDS011;60511;42.686;23.300;2022-12-29T00:53:23;9.02;;;8.13;;
43216;SDS011;60511;42.686;23.300;2022-12-29T00:55:24;8.75;;;7.95;;
43216;SDS011;60511;42.686;23.300;2022-12-29T00:57:24;7.88;;;7.18;;
43216;SDS011;60511;42.686;23.300;2022-12-29T00:59:25;8.45;;;7.65;;
43216;SDS011;60511;42.686;23.300;2022-12-29T01:01:25;9.15;;;8.10;;
43216;SDS011;60511;42.686;23.300;2022-12-29T01:03:26;8.98;;;8.18;;
43216;SDS011;60511;42.686;23.300;2022-12-29T01:05:26;8.52;;;7.57;;
43216;SDS011;60511;42.686;23.300;2022-12-29T01:07:26;8.20;;;7.50;;
43216;SDS011;60511;42.686;23.300;2022-12-29T01:09:27;7.93;;;7.13;;
43216;SDS011;60511;42.686;23.300;2022-12-29T01:11:46;8.63;;;7.82;;
43216;SDS011;60511;42.686;23.300;2022-12-29T01:13:46;8.68;;;7.88;;
43216;SDS011;60511;42.686;23.300;2022-12-29T01:15:50;8.07;;;7.30;;
43216;SDS011;60511;42.686;23.300;2022-12-29T01:17:51;8.13;;;7.40;;
43216;SDS011;60511;42.686;23.300;2022-12-29T01:19:51;8.70;;;7.80;;
43216;SDS011;60511;42.686;23.300;2022-12-29T01:21:52;8.75;;;7.93;;
43216;SDS011;60511;42.686;23.300;2022-12-29T01:23:52;8.63;;;7.82;;
43216;SDS011;60511;42.686;23.300;2022-12-29T01:25:52;8.98;;;8.18;;
43216;SDS011;60511;42.686;23.300;2022-12-29T01:27:53;8.82;;;7.70;;
43216;SDS011;60511;42.686;23.300;2022-12-29T01:29:53;8.45;;;7.75;;
43216;SDS011;60511;42.686;23.300;2022-12-29T01:31:53;8.70;;;7.90;;
43216;SDS011;60511;42.686;23.300;2022-12-29T01:33:54;8.07;;;7.38;;
43216;SDS011;60511;42.686;23.300;2022-12-29T01:35:54;8.88;;;8.00;;
43216;SDS011;60511;42.686;23.300;2022-12-29T01:37:54;8.63;;;7.75;;
43216;SDS011;60511;42.686;23.300;2022-12-29T01:39:55;8.25;;;7.50;;
43216;SDS011;60511;42.686;23.300;2022-12-29T01:41:55;7.75;;;6.95;;
43216;SDS011;60511;42.686;23.300;2022-12-29T01:43:56;8.23;;;7.53;;
43216;SDS011;60511;42.686;23.300;2022-12-29T01:45:59;8.75;;;7.95;;
43216;SDS011;60511;42.686;23.300;2022-12-29T01:48:00;9.32;;;8.43;;
43216;SDS011;60511;42.686;23.300;2022-12-29T01:50:46;7.78;;;7.07;;
43216;SDS011;60511;42.686;23.300;2022-12-29T01:52:31;8.77;;;7.97;;
43216;SDS011;60511;42.686;23.300;2022-12-29T01:54:39;9.13;;;8.23;;
43216;SDS011;60511;42.686;23.300;2022-12-29T01:56:46;8.35;;;7.40;;
43216;SDS011;60511;42.686;23.300;2022-12-29T01:58:48;9.18;;;8.38;;
43216;SDS011;60511;42.686;23.300;2022-12-29T02:00:55;9.00;;;8.20;;
43216;SDS011;60511;42.686;23.300;2022-12-29T02:02:56;8.85;;;8.05;;
43216;SDS011;60511;42.686;23.300;2022-12-29T02:04:57;8.48;;;7.78;;
43216;SDS011;60511;42.686;23.300;2022-12-29T02:07:01;8.38;;;7.68;;
43216;SDS011;60511;42.686;23.300;2022-12-29T02:09:06;8.88;;;8.07;;
43216;SDS011;60511;42.686;23.300;2022-12-29T02:11:06;9.02;;;8.13;;
43216;SDS011;60511;42.686;23.300;2022-12-29T02:13:07;8.90;;;8.00;;
43216;SDS011;60511;42.686;23.300;2022-12-29T02:15:08;8.88;;;7.97;;
43216;SDS011;60511;42.686;23.300;2022-12-29T02:22:42;9.07;;;7.93;;
43216;SDS011;60511;42.686;23.300;2022-12-29T02:40:48;8.23;;;7.43;;
43216;SDS011;60511;42.686;23.300;2022-12-29T02:43:01;8.52;;;7.75;;
43216;SDS011;60511;42.686;23.300;2022-12-29T02:45:15;8.88;;;8.18;;
43216;SDS011;60511;42.686;23.300;2022-12-29T02:49:48;7.90;;;7.20;;
43216;SDS011;60511;42.686;23.300;2022-12-29T02:51:58;8.30;;;7.40;;
43216;SDS011;60511;42.686;23.300;2022-12-29T02:54:06;7.90;;;7.20;;
43216;SDS011;60511;42.686;23.300;2022-12-29T02:56:25;9.07;;;7.75;;
43216;SDS011;60511;42.686;23.300;2022-12-29T02:58:26;8.52;;;7.82;;
43216;SDS011;60511;42.686;23.300;2022-12-29T03:00:26;9.23;;;8.35;;
43216;SDS011;60511;42.686;23.300;2022-12-29T03:07:10;8.88;;;8.07;;
43216;SDS011;60511;42.686;23.300;2022-12-29T03:09:26;8.57;;;7.78;;
43216;SDS011;60511;42.686;23.300;2022-12-29T03:11:32;7.47;;;6.78;;
43216;SDS011;60511;42.686;23.300;2022-12-29T03:14:02;8.63;;;7.80;;
43216;SDS011;60511;42.686;23.300;2022-12-29T03:16:57;8.65;;;7.85;;
43216;SDS011;60511;42.686;23.300;2022-12-29T03:19:10;7.90;;;7.20;;
43216;SDS011;60511;42.686;23.300;2022-12-29T03:24:02;8.38;;;7.68;;
43216;SDS011;60511;42.686;23.300;2022-12-29T03:26:04;7.90;;;7.20;;
43216;SDS011;60511;42.686;23.300;2022-12-29T03:28:15;8.45;;;7.72;;
43216;SDS011;60511;42.686;23.300;2022-12-29T03:30:20;8.45;;;7.47;;
43216;SDS011;60511;42.686;23.300;2022-12-29T03:32:21;8.27;;;7.43;;
43216;SDS011;60511;42.686;23.300;2022-12-29T03:34:25;7.80;;;7.10;;
43216;SDS011;60511;42.686;23.300;2022-12-29T03:36:29;8.30;;;7.50;;
43216;SDS011;60511;42.686;23.300;2022-12-29T03:39:16;8.52;;;7.72;;
43216;SDS011;60511;42.686;23.300;2022-12-29T03:41:07;7.63;;;6.93;;
43216;SDS011;60511;42.686;23.300;2022-12-29T03:43:10;8.23;;;7.43;;
43216;SDS011;60511;42.686;23.300;2022-12-29T03:45:13;7.72;;;7.03;;
43216;SDS011;60511;42.686;23.300;2022-12-29T03:47:14;7.40;;;6.70;;
43216;SDS011;60511;42.686;23.300;2022-12-29T03:49:15;7.80;;;7.00;;
43216;SDS011;60511;42.686;23.300;2022-12-29T03:51:15;7.97;;;7.28;;
43216;SDS011;60511;42.686;23.300;2022-12-29T03:53:15;8.40;;;7.70;;
43216;SDS011;60511;42.686;23.300;2022-12-29T03:55:16;8.48;;;7.68;;
43216;SDS011;60511;42.686;23.300;2022-12-29T03:57:16;7.68;;;6.97;;
43216;SDS011;60511;42.686;23.300;2022-12-29T03:59:17;8.00;;;7.30;;
43216;SDS011;60511;42.686;23.300;2022-12-29T04:01:17;8.38;;;7.57;;
43216;SDS011;60511;42.686;23.300;2022-12-29T04:03:17;8.00;;;7.30;;
43216;SDS011;60511;42.686;23.300;2022-12-29T04:05:18;8.10;;;7.32;;
43216;SDS011;60511;42.686;23.300;2022-12-29T04:07:18;7.00;;;6.40;;
43216;SDS011;60511;42.686;23.300;2022-12-29T04:09:18;7.68;;;6.95;;
43216;SDS011;60511;42.686;23.300;2022-12-29T04:11:19;7.40;;;6.80;;
43216;SDS011;60511;42.686;23.300;2022-12-29T04:13:20;7.95;;;7.25;;
43216;SDS011;60511;42.686;23.300;2022-12-29T04:15:21;7.95;;;7.25;;
43216;SDS011;60511;42.686;23.300;2022-12-29T04:17:23;7.20;;;6.50;;
43216;SDS011;60511;42.686;23.300;2022-12-29T04:19:23;7.63;;;6.93;;
43216;SDS011;60511;42.686;23.300;2022-12-29T04:21:24;7.80;;;7.13;;
43216;SDS011;60511;42.686;23.300;2022-12-29T04:23:24;8.55;;;7.65;;
43216;SDS011;60511;42.686;23.300;2022-12-29T04:25:24;8.13;;;7.35;;
43216;SDS011;60511;42.686;23.300;2022-12-29T04:27:25;7.10;;;6.50;;
43216;SDS011;60511;42.686;23.300;2022-12-29T04:29:25;7.78;;;7.07;;
43216;SDS011;60511;42.686;23.300;2022-12-29T04:31:25;7.88;;;6.93;;
43216;SDS011;60511;42.686;23.300;2022-12-29T04:33:26;6.97;;;6.38;;
43216;SDS011;60511;42.686;23.300;2022-12-29T04:35:26;7.38;;;6.78;;
43216;SDS011;60511;42.686;23.300;2022-12-29T04:37:27;7.55;;;6.93;;
43216;SDS011;60511;42.686;23.300;2022-12-29T04:39:27;7.60;;;6.90;;
43216;SDS011;60511;42.686;23.300;2022-12-29T04:41:27;7.70;;;7.00;;
43216;SDS011;60511;42.686;23.300;2022-12-29T04:43:28;7.10;;;6.50;;
43216;SDS011;60511;42.686;23.300;2022-12-29T04:45:28;6.95;;;6.35;;
43216;SDS011;60511;42.686;23.300;2022-12-29T04:47:28;7.47;;;6.88;;
43216;SDS011;60511;42.686;23.300;2022-12-29T04:49:29;7.10;;;6.50;;
43216;SDS011;60511;42.686;23.300;2022-12-29T04:51:29;7.25;;;6.57;;
43216;SDS011;60511;42.686;23.300;2022-12-29T04:53:30;7.18;;;6.57;;
43216;SDS011;60511;42.686;23.300;2022-12-29T04:55:30;8.00;;;7.25;;
43216;SDS011;60511;42.686;23.300;2022-12-29T04:57:30;7.30;;;6.70;;
43216;SDS011;60511;42.686;23.300;2022-12-29T04:59:31;7.28;;;6.68;;
43216;SDS011;60511;42.686;23.300;2022-12-29T05:01:31;7.25;;;6.55;;
43216;SDS011;60511;42.686;23.300;2022-12-29T05:03:31;7.22;;;6.53;;
43216;SDS011;60511;42.686;23.300;2022-12-29T05:05:32;7.53;;;6.82;;
43216;SDS011;60511;42.686;23.300;2022-12-29T05:07:32;7.90;;;7.20;;
43216;SDS011;60511;42.686;23.300;2022-12-29T05:09:33;7.80;;;7.10;;
43216;SDS011;60511;42.686;23.300;2022-12-29T05:11:33;7.50;;;6.80;;
43216;SDS011;60511;42.686;23.300;2022-12-29T05:13:34;7.05;;;6.35;;
43216;SDS011;60511;42.686;23.300;2022-12-29T05:15:34;6.88;;;6.28;;
43216;SDS011;60511;42.686;23.300;2022-12-29T05:20:14;7.10;;;6.43;;
43216;SDS011;60511;42.686;23.300;2022-12-29T05:22:14;7.35;;;6.75;;
43216;SDS011;60511;42.686;23.300;2022-12-29T05:24:14;6.65;;;6.07;;
43216;SDS011;60511;42.686;23.300;2022-12-29T05:26:15;6.78;;;6.18;;
43216;SDS011;60511;42.686;23.300;2022-12-29T05:28:15;7.13;;;6.53;;
43216;SDS011;60511;42.686;23.300;2022-12-29T05:30:16;7.50;;;6.85;;
43216;SDS011;60511;42.686;23.300;2022-12-29T05:32:16;7.43;;;6.72;;
43216;SDS011;60511;42.686;23.300;2022-12-29T05:34:16;6.78;;;6.18;;
43216;SDS011;60511;42.686;23.300;2022-12-29T05:36:17;8.07;;;7.38;;
43216;SDS011;60511;42.686;23.300;2022-12-29T05:38:17;7.57;;;6.82;;
43216;SDS011;60511;42.686;23.300;2022-12-29T05:40:18;7.10;;;6.47;;
43216;SDS011;60511;42.686;23.300;2022-12-29T05:42:18;7.50;;;6.90;;
43216;SDS011;60511;42.686;23.300;2022-12-29T05:44:18;7.93;;;7.22;;
43216;SDS011;60511;42.686;23.300;2022-12-29T05:46:19;7.80;;;7.05;;
43216;SDS011;60511;42.686;23.300;2022-12-29T05:48:19;6.97;;;6.38;;
43216;SDS011;60511;42.686;23.300;2022-12-29T05:50:19;7.38;;;6.78;;
43216;SDS011;60511;42.686;23.300;2022-12-29T05:54:43;7.07;;;6.35;;
43216;SDS011;60511;42.686;23.300;2022-12-29T05:56:44;7.30;;;6.70;;
43216;SDS011;60511;42.686;23.300;2022-12-29T05:58:44;6.88;;;6.28;;
43216;SDS011;60511;42.686;23.300;2022-12-29T06:00:44;6.82;;;6.32;;
43216;SDS011;60511;42.686;23.300;2022-12-29T06:02:45;7.13;;;6.47;;
43216;SDS011;60511;42.686;23.300;2022-12-29T06:04:45;7.35;;;6.75;;
43216;SDS011;60511;42.686;23.300;2022-12-29T06:06:46;7.72;;;7.03;;
43216;SDS011;60511;42.686;23.300;2022-12-29T06:08:46;7.05;;;6.40;;
43216;SDS011;60511;42.686;23.300;2022-12-29T06:10:47;7.03;;;6.32;;
43216;SDS011;60511;42.686;23.300;2022-12-29T06:12:47;7.25;;;6.55;;
43216;SDS011;60511;42.686;23.300;2022-12-29T06:14:48;7.95;;;7.25;;
43216;SDS011;60511;42.686;23.300;2022-12-29T06:16:48;8.13;;;7.32;;
43216;SDS011;60511;42.686;23.300;2022-12-29T06:18:48;6.53;;;6.00;;
43216;SDS011;60511;42.686;23.300;2022-12-29T06:20:49;7.07;;;6.45;;
43216;SDS011;60511;42.686;23.300;2022-12-29T06:22:49;6.78;;;6.18;;
43216;SDS011;60511;42.686;23.300;2022-12-29T06:24:50;7.00;;;6.30;;
43216;SDS011;60511;42.686;23.300;2022-12-29T06:26:50;6.75;;;6.15;;
43216;SDS011;60511;42.686;23.300;2022-12-29T06:28:50;7.18;;;6.57;;
43216;SDS011;60511;42.686;23.300;2022-12-29T06:30:51;7.53;;;6.78;;
43216;SDS011;60511;42.686;23.300;2022-12-29T06:32:51;6.93;;;6.32;;
43216;SDS011;60511;42.686;23.300;2022-12-29T06:34:51;6.90;;;6.40;;
43216;SDS011;60511;42.686;23.300;2022-12-29T06:36:52;7.20;;;6.50;;
43216;SDS011;60511;42.686;23.300;2022-12-29T06:38:52;7.43;;;6.75;;
43216;SDS011;60511;42.686;23.300;2022-12-29T06:40:53;7.38;;;6.78;;
43216;SDS011;60511;42.686;23.300;2022-12-29T06:42:53;7.20;;;6.53;;
43216;SDS011;60511;42.686;23.300;2022-12-29T06:44:54;8.02;;;7.22;;
43216;SDS011;60511;42.686;23.300;2022-12-29T06:46:57;6.57;;;6.03;;
43216;SDS011;60511;42.686;23.300;2022-12-29T06:48:57;7.63;;;7.03;;
43216;SDS011;60511;42.686;23.300;2022-12-29T06:50:58;8.20;;;7.50;;
43216;SDS011;60511;42.686;23.300;2022-12-29T06:52:58;6.93;;;6.32;;
43216;SDS011;60511;42.686;23.300;2022-12-29T06:54:59;7.05;;;6.40;;
43216;SDS011;60511;42.686;23.300;2022-12-29T06:56:59;6.68;;;6.07;;
43216;SDS011;60511;42.686;23.300;2022-12-29T06:59:00;7.43;;;6.75;;
43216;SDS011;60511;42.686;23.300;2022-12-29T07:01:01;7.40;;;6.75;;
43216;SDS011;60511;42.686;23.300;2022-12-29T07:03:01;8.02;;;7.32;;
43216;SDS011;60511;42.686;23.300;2022-12-29T07:05:02;7.82;;;7.13;;
43216;SDS011;60511;42.686;23.300;2022-12-29T07:07:02;7.65;;;6.88;;
43216;SDS011;60511;42.686;23.300;2022-12-29T07:09:03;7.72;;;6.93;;
43216;SDS011;60511;42.686;23.300;2022-12-29T07:11:04;7.10;;;6.50;;
43216;SDS011;60511;42.686;23.300;2022-12-29T07:13:05;7.75;;;6.85;;
43216;SDS011;60511;42.686;23.300;2022-12-29T07:15:07;7.72;;;7.00;;
43216;SDS011;60511;42.686;23.300;2022-12-29T07:17:08;7.85;;;7.05;;
43216;SDS011;60511;42.686;23.300;2022-12-29T07:19:08;8.00;;;7.30;;
43216;SDS011;60511;42.686;23.300;2022-12-29T07:21:09;8.50;;;7.70;;
43216;SDS011;60511;42.686;23.300;2022-12-29T07:23:10;7.55;;;6.85;;
43216;SDS011;60511;42.686;23.300;2022-12-29T07:25:10;8.60;;;7.82;;
43216;SDS011;60511;42.686;23.300;2022-12-29T07:27:11;8.40;;;7.65;;
43216;SDS011;60511;42.686;23.300;2022-12-29T07:29:11;8.52;;;7.70;;
43216;SDS011;60511;42.686;23.300;2022-12-29T07:31:19;8.63;;;7.82;;
43216;SDS011;60511;42.686;23.300;2022-12-29T07:33:21;7.97;;;7.18;;
43216;SDS011;60511;42.686;23.300;2022-12-29T07:35:21;7.70;;;6.97;;
43216;SDS011;60511;42.686;23.300;2022-12-29T07:37:22;8.30;;;7.50;;
43216;SDS011;60511;42.686;23.300;2022-12-29T07:39:22;8.70;;;7.90;;
43216;SDS011;60511;42.686;23.300;2022-12-29T07:41:22;8.05;;;7.35;;
43216;SDS011;60511;42.686;23.300;2022-12-29T07:43:23;9.07;;;8.18;;
43216;SDS011;60511;42.686;23.300;2022-12-29T07:45:23;8.60;;;7.80;;
43216;SDS011;60511;42.686;23.300;2022-12-29T07:47:24;7.97;;;7.28;;
43216;SDS011;60511;42.686;23.300;2022-12-29T07:49:24;7.78;;;7.07;;
43216;SDS011;60511;42.686;23.300;2022-12-29T07:51:25;8.40;;;7.60;;
43216;SDS011;60511;42.686;23.300;2022-12-29T07:53:25;8.82;;;8.05;;
43216;SDS011;60511;42.686;23.300;2022-12-29T07:55:25;8.80;;;8.07;;
43216;SDS011;60511;42.686;23.300;2022-12-29T07:57:26;8.43;;;7.63;;
43216;SDS011;60511;42.686;23.300;2022-12-29T07:59:26;8.60;;;7.80;;
43216;SDS011;60511;42.686;23.300;2022-12-29T08:01:26;9.27;;;8.48;;
43216;SDS011;60511;42.686;23.300;2022-12-29T08:03:27;9.18;;;8.38;;
43216;SDS011;60511;42.686;23.300;2022-12-29T08:05:27;8.55;;;7.82;;
43216;SDS011;60511;42.686;23.300;2022-12-29T08:07:28;8.48;;;7.68;;
43216;SDS011;60511;42.686;23.300;2022-12-29T08:09:28;8.45;;;7.65;;
43216;SDS011;60511;42.686;23.300;2022-12-29T08:11:28;9.23;;;8.05;;
43216;SDS011;60511;42.686;23.300;2022-12-29T08:13:29;8.75;;;7.85;;
43216;SDS011;60511;42.686;23.300;2022-12-29T08:15:29;9.35;;;8.52;;
43216;SDS011;60511;42.686;23.300;2022-12-29T08:17:29;8.65;;;7.85;;
43216;SDS011;60511;42.686;23.300;2022-12-29T08:19:30;8.98;;;8.10;;
43216;SDS011;60511;42.686;23.300;2022-12-29T08:21:30;8.68;;;7.88;;
43216;SDS011;60511;42.686;23.300;2022-12-29T08:23:31;9.20;;;8.18;;
43216;SDS011;60511;42.686;23.300;2022-12-29T08:25:32;8.60;;;7.80;;
43216;SDS011;60511;42.686;23.300;2022-12-29T08:27:32;9.60;;;8.55;;
43216;SDS011;60511;42.686;23.300;2022-12-29T08:29:33;9.27;;;8.48;;
43216;SDS011;60511;42.686;23.300;2022-12-29T08:31:33;9.55;;;8.55;;
43216;SDS011;60511;42.686;23.300;2022-12-29T08:33:34;8.50;;;7.70;;
43216;SDS011;60511;42.686;23.300;2022-12-29T08:35:34;8.55;;;7.75;;
43216;SDS011;60511;42.686;23.300;2022-12-29T08:37:35;8.77;;;7.97;;
43216;SDS011;60511;42.686;23.300;2022-12-29T08:39:35;9.05;;;8.20;;
43216;SDS011;60511;42.686;23.300;2022-12-29T08:41:35;8.40;;;7.47;;
43216;SDS011;60511;42.686;23.300;2022-12-29T08:43:36;9.40;;;8.45;;
43216;SDS011;60511;42.686;23.300;2022-12-29T08:45:36;9.10;;;8.30;;
43216;SDS011;60511;42.686;23.300;2022-12-29T08:47:36;9.23;;;8.27;;
43216;SDS011;60511;42.686;23.300;2022-12-29T08:49:37;9.32;;;8.43;;
43216;SDS011;60511;42.686;23.300;2022-12-29T08:51:37;8.88;;;8.05;;
43216;SDS011;60511;42.686;23.300;2022-12-29T08:53:38;8.07;;;7.28;;
43216;SDS011;60511;42.686;23.300;2022-12-29T08:55:38;8.98;;;8.10;;
43216;SDS011;60511;42.686;23.300;2022-12-29T08:57:38;9.35;;;8.35;;
43216;SDS011;60511;42.686;23.300;2022-12-29T08:59:39;8.95;;;8.15;;
43216;SDS011;60511;42.686;23.300;2022-12-29T09:01:39;9.38;;;8.48;;
43216;SDS011;60511;42.686;23.300;2022-12-29T09:03:40;9.23;;;8.43;;
43216;SDS011;60511;42.686;23.300;2022-12-29T09:05:40;9.48;;;8.60;;
43216;SDS011;60511;42.686;23.300;2022-12-29T09:07:41;9.10;;;8.30;;
43216;SDS011;60511;42.686;23.300;2022-12-29T09:09:41;9.80;;;8.90;;
43216;SDS011;60511;42.686;23.300;2022-12-29T09:11:41;9.05;;;8.25;;
43216;SDS011;60511;42.686;23.300;2022-12-29T09:13:42;9.27;;;8.40;;
43216;SDS011;60511;42.686;23.300;2022-12-29T09:15:42;9.55;;;8.30;;
43216;SDS011;60511;42.686;23.300;2022-12-29T09:17:43;8.85;;;8.02;;
43216;SDS011;60511;42.686;23.300;2022-12-29T09:19:45;8.88;;;8.07;;
43216;SDS011;60511;42.686;23.300;2022-12-29T09:21:45;10.23;;;8.32;;
43216;SDS011;60511;42.686;23.300;2022-12-29T09:23:45;10.13;;;9.23;;
43216;SDS011;60511;42.686;23.300;2022-12-29T09:25:47;9.25;;;8.40;;
43216;SDS011;60511;42.686;23.300;2022-12-29T09:27:48;9.48;;;8.68;;
43216;SDS011;60511;42.686;23.300;2022-12-29T09:29:48;8.88;;;8.07;;
43216;SDS011;60511;42.686;23.300;2022-12-29T09:31:48;9.60;;;8.80;;
43216;SDS011;60511;42.686;23.300;2022-12-29T09:33:49;8.75;;;7.95;;
43216;SDS011;60511;42.686;23.300;2022-12-29T09:35:56;9.80;;;8.82;;
43216;SDS011;60511;42.686;23.300;2022-12-29T09:37:57;8.80;;;8.00;;
43216;SDS011;60511;42.686;23.300;2022-12-29T09:39:58;9.35;;;8.55;;
43216;SDS011;60511;42.686;23.300;2022-12-29T09:46:27;8.45;;;7.70;;
43216;SDS011;60511;42.686;23.300;2022-12-29T09:48:30;9.48;;;8.50;;
43216;SDS011;60511;42.686;23.300;2022-12-29T09:50:35;10.27;;;9.00;;
43216;SDS011;60511;42.686;23.300;2022-12-29T09:52:43;9.87;;;8.97;;
43216;SDS011;60511;42.686;23.300;2022-12-29T09:56:56;9.07;;;8.27;;
43216;SDS011;60511;42.686;23.300;2022-12-29T09:59:02;9.60;;;8.60;;
43216;SDS011;60511;42.686;23.300;2022-12-29T10:01:24;9.00;;;7.97;;
43216;SDS011;60511;42.686;23.300;2022-12-29T10:03:51;9.55;;;8.35;;
43216;SDS011;60511;42.686;23.300;2022-12-29T10:06:03;9.13;;;8.23;;
43216;SDS011;60511;42.686;23.300;2022-12-29T10:08:18;9.57;;;8.35;;
43216;SDS011;60511;42.686;23.300;2022-12-29T10:10:55;8.40;;;7.60;;
43216;SDS011;60511;42.686;23.300;2022-12-29T10:13:09;9.20;;;8.30;;
43216;SDS011;60511;42.686;23.300;2022-12-29T10:24:41;9.38;;;8.18;;
43216;SDS011;60511;42.686;23.300;2022-12-29T10:26:44;9.73;;;8.73;;
43216;SDS011;60511;42.686;23.300;2022-12-29T10:28:53;9.57;;;8.07;;
43216;SDS011;60511;42.686;23.300;2022-12-29T10:30:57;9.65;;;8.68;;
43216;SDS011;60511;42.686;23.300;2022-12-29T10:33:01;9.15;;;8.10;;
43216;SDS011;60511;42.686;23.300;2022-12-29T10:35:12;9.52;;;8.55;;
43216;SDS011;60511;42.686;23.300;2022-12-29T10:37:21;9.07;;;8.27;;
43216;SDS011;60511;42.686;23.300;2022-12-29T10:39:37;9.25;;;8.27;;
43216;SDS011;60511;42.686;23.300;2022-12-29T10:43:58;9.10;;;8.25;;
43216;SDS011;60511;42.686;23.300;2022-12-29T10:46:02;9.93;;;8.93;;
43216;SDS011;60511;42.686;23.300;2022-12-29T10:48:12;9.30;;;8.40;;
43216;SDS011;60511;42.686;23.300;2022-12-29T10:50:22;9.48;;;8.57;;
43216;SDS011;60511;42.686;23.300;2022-12-29T10:52:24;9.73;;;8.63;;
43216;SDS011;60511;42.686;23.300;2022-12-29T10:54:32;9.65;;;8.65;;
43216;SDS011;60511;42.686;23.300;2022-12-29T10:56:39;9.48;;;8.57;;
43216;SDS011;60511;42.686;23.300;2022-12-29T10:58:44;9.27;;;8.38;;
43216;SDS011;60511;42.686;23.300;2022-12-29T11:00:50;9.20;;;8.30;;
43216;SDS011;60511;42.686;23.300;2022-12-29T11:07:58;9.35;;;8.55;;
43216;SDS011;60511;42.686;23.300;2022-12-29T11:10:18;9.15;;;8.23;;
43216;SDS011;60511;42.686;23.300;2022-12-29T11:12:23;9.15;;;8.25;;
43216;SDS011;60511;42.686;23.300;2022-12-29T11:14:27;9.55;;;8.65;;
43216;SDS011;60511;42.686;23.300;2022-12-29T11:16:30;9.15;;;8.25;;
43216;SDS011;60511;42.686;23.300;2022-12-29T11:18:33;9.50;;;8.63;;
43216;SDS011;60511;42.686;23.300;2022-12-29T11:20:37;9.80;;;8.90;;
43216;SDS011;60511;42.686;23.300;2022-12-29T11:22:38;9.80;;;8.90;;
43216;SDS011;60511;42.686;23.300;2022-12-29T11:24:45;8.65;;;7.85;;
43216;SDS011;60511;42.686;23.300;2022-12-29T11:26:48;8.57;;;7.78;;
43216;SDS011;60511;42.686;23.300;2022-12-29T11:31:17;10.57;;;8.38;;
43216;SDS011;60511;42.686;23.300;2022-12-29T11:33:18;9.20;;;8.23;;
43216;SDS011;60511;42.686;23.300;2022-12-29T11:35:35;9.68;;;8.75;;
43216;SDS011;60511;42.686;23.300;2022-12-29T11:37:39;9.07;;;8.25;;
43216;SDS011;60511;42.686;23.300;2022-12-29T11:41:46;8.93;;;8.13;;
43216;SDS011;60511;42.686;23.300;2022-12-29T11:43:53;9.85;;;8.48;;
43216;SDS011;60511;42.686;23.300;2022-12-29T11:45:57;9.00;;;8.20;;
43216;SDS011;60511;42.686;23.300;2022-12-29T11:50:06;9.48;;;8.68;;
43216;SDS011;60511;42.686;23.300;2022-12-29T11:52:08;8.90;;;8.10;;
43216;SDS011;60511;42.686;23.300;2022-12-29T11:54:09;9.85;;;8.95;;
43216;SDS011;60511;42.686;23.300;2022-12-29T11:58:41;9.30;;;8.40;;
43216;SDS011;60511;42.686;23.300;2022-12-29T12:00:42;9.57;;;8.68;;
43216;SDS011;60511;42.686;23.300;2022-12-29T12:07:20;9.65;;;8.73;;
43216;SDS011;60511;42.686;23.300;2022-12-29T12:09:31;8.80;;;7.95;;
43216;SDS011;60511;42.686;23.300;2022-12-29T12:11:41;9.48;;;8.50;;
43216;SDS011;60511;42.686;23.300;2022-12-29T12:13:47;8.83;;;8.03;;
43216;SDS011;60511;42.686;23.300;2022-12-29T12:15:59;8.88;;;8.07;;
43216;SDS011;60511;42.686;23.300;2022-12-29T12:18:21;9.55;;;8.63;;
43216;SDS011;60511;42.686;23.300;2022-12-29T12:23:26;9.30;;;8.38;;
43216;SDS011;60511;42.686;23.300;2022-12-29T12:25:51;8.77;;;7.82;;
43216;SDS011;60511;42.686;23.300;2022-12-29T12:28:02;9.38;;;8.48;;
43216;SDS011;60511;42.686;23.300;2022-12-29T12:32:24;9.45;;;8.18;;
43216;SDS011;60511;42.686;23.300;2022-12-29T12:34:46;9.45;;;8.57;;
43216;SDS011;60511;42.686;23.300;2022-12-29T12:39:00;8.30;;;7.57;;
43216;SDS011;60511;42.686;23.300;2022-12-29T12:41:06;8.52;;;7.82;;
43216;SDS011;60511;42.686;23.300;2022-12-29T12:52:26;9.30;;;8.15;;
43216;SDS011;60511;42.686;23.300;2022-12-29T12:54:44;8.90;;;8.00;;
43216;SDS011;60511;42.686;23.300;2022-12-29T12:57:14;8.52;;;7.72;;
43216;SDS011;60511;42.686;23.300;2022-12-29T12:59:37;9.07;;;8.18;;
43216;SDS011;60511;42.686;23.300;2022-12-29T13:06:31;8.70;;;8.00;;
43216;SDS011;60511;42.686;23.300;2022-12-29T13:13:51;8.77;;;7.95;;
43216;SDS011;60511;42.686;23.300;2022-12-29T13:16:38;8.60;;;7.80;;
43216;SDS011;60511;42.686;23.300;2022-12-29T13:18:57;8.90;;;8.00;;
43216;SDS011;60511;42.686;23.300;2022-12-29T13:23:41;8.57;;;7.75;;
43216;SDS011;60511;42.686;23.300;2022-12-29T13:25:46;8.75;;;7.95;;
43216;SDS011;60511;42.686;23.300;2022-12-29T13:28:04;8.80;;;7.90;;
43216;SDS011;60511;42.686;23.300;2022-12-29T13:30:15;9.25;;;8.35;;
43216;SDS011;60511;42.686;23.300;2022-12-29T13:34:49;9.07;;;8.27;;
43216;SDS011;60511;42.686;23.300;2022-12-29T13:37:12;8.93;;;8.10;;
43216;SDS011;60511;42.686;23.300;2022-12-29T13:39:19;8.80;;;7.93;;
43216;SDS011;60511;42.686;23.300;2022-12-29T13:41:33;8.93;;;8.13;;
43216;SDS011;60511;42.686;23.300;2022-12-29T13:43:37;8.70;;;7.88;;
43216;SDS011;60511;42.686;23.300;2022-12-29T13:45:42;8.55;;;7.75;;
43216;SDS011;60511;42.686;23.300;2022-12-29T13:47:53;9.52;;;8.25;;
43216;SDS011;60511;42.686;23.300;2022-12-29T13:50:16;10.25;;;8.95;;
43216;SDS011;60511;42.686;23.300;2022-12-29T13:54:57;8.98;;;8.18;;
43216;SDS011;60511;42.686;23.300;2022-12-29T13:57:10;8.27;;;7.47;;
43216;SDS011;60511;42.686;23.300;2022-12-29T14:01:59;9.25;;;8.35;;
43216;SDS011;60511;42.686;23.300;2022-12-29T14:04:11;8.68;;;7.88;;
43216;SDS011;60511;42.686;23.300;2022-12-29T14:06:19;8.88;;;7.97;;
43216;SDS011;60511;42.686;23.300;2022-12-29T14:08:20;8.98;;;8.18;;